createdAt,value
2019-04-10T00:00:57.189Z,99.12
2019-04-10T00:01:57.998Z,99.02
2019-04-10T00:02:57.785Z,98.55
2019-04-10T00:03:56.965Z,98.27
2019-04-10T00:04:56.935Z,98.41
2019-04-10T00:05:56.911Z,99.22
2019-04-10T00:07:10.479Z,98.83
2019-04-10T00:07:57.578Z,99.02
2019-04-10T00:08:56.863Z,98.55
2019-04-10T00:09:57.310Z,99.74
2019-04-10T00:10:56.789Z,99.50
2019-04-10T00:11:57.074Z,98.36
2019-04-10T00:12:56.740Z,99.12
2019-04-10T00:13:56.708Z,99.50
2019-04-10T00:14:56.783Z,99.45
2019-04-10T00:15:57.063Z,99.60
2019-04-10T00:16:56.632Z,99.45
2019-04-10T00:17:57.689Z,99.93
2019-04-10T00:18:56.584Z,99.55
2019-04-10T00:19:56.559Z,99.45
2019-04-10T00:20:56.819Z,98.88
2019-04-10T00:21:56.507Z,98.97
2019-04-10T00:22:56.482Z,98.60
2019-04-10T00:23:57.608Z,98.79
2019-04-10T00:24:56.632Z,98.97
2019-04-10T00:25:57.282Z,98.88
2019-04-10T00:26:56.485Z,98.97
2019-04-10T00:27:56.359Z,99.16
2019-04-10T00:28:56.333Z,99.36
2019-04-10T00:29:56.533Z,98.50
2019-04-10T00:30:56.281Z,98.41
2019-04-10T00:31:56.444Z,98.60
2019-04-10T00:32:56.474Z,98.31
2019-04-10T00:33:56.933Z,98.50
2019-04-10T00:34:56.185Z,98.41
2019-04-10T00:35:56.188Z,98.31
2019-04-10T00:36:56.127Z,98.60
2019-04-10T00:37:56.102Z,97.64
2019-04-10T00:38:56.083Z,97.55
2019-04-10T00:39:57.047Z,98.60
2019-04-10T00:40:56.031Z,97.83
2019-04-10T00:41:56.766Z,97.64
2019-04-10T00:42:57.237Z,97.55
2019-04-10T00:43:55.950Z,96.98
2019-04-10T00:44:56.417Z,97.17
2019-04-10T00:45:55.906Z,97.36
2019-04-10T00:46:56.850Z,96.79
2019-04-10T00:47:55.848Z,97.27
2019-04-10T00:48:56.466Z,97.36
2019-04-10T00:49:55.855Z,97.27
2019-04-10T00:50:55.774Z,97.45
2019-04-10T00:51:55.746Z,97.83
2019-04-10T00:52:56.668Z,97.17
2019-04-10T00:53:55.696Z,97.27
2019-04-10T00:54:55.670Z,97.74
2019-04-10T00:55:56.462Z,96.79
2019-04-10T00:56:55.617Z,97.36
2019-04-10T00:57:56.176Z,97.36
2019-04-10T00:58:55.569Z,97.36
2019-04-10T00:59:56.715Z,97.45
2019-04-10T01:00:55.517Z,97.93
2019-04-10T01:01:56.298Z,97.55
2019-04-10T01:02:55.466Z,98.03
2019-04-10T01:03:56.369Z,97.93
2019-04-10T01:04:55.415Z,97.55
2019-04-10T01:05:55.502Z,97.74
2019-04-10T01:06:55.365Z,97.45
2019-04-10T01:07:56.034Z,97.36
2019-04-10T01:08:55.313Z,98.03
2019-04-10T01:09:55.571Z,97.55
2019-04-10T01:10:55.263Z,98.03
2019-04-10T01:11:55.301Z,98.12
2019-04-10T01:12:55.210Z,97.55
2019-04-10T01:13:55.187Z,97.83
2019-04-10T01:14:56.140Z,97.64
2019-04-10T01:15:55.239Z,98.64
2019-04-10T01:16:55.756Z,98.26
2019-04-10T01:17:55.084Z,98.45
2019-04-10T01:18:55.153Z,98.36
2019-04-10T01:19:55.034Z,98.83
2019-04-10T01:20:55.676Z,98.45
2019-04-10T01:21:54.984Z,97.69
2019-04-10T01:22:55.231Z,97.78
2019-04-10T01:23:55.301Z,97.60
2019-04-10T01:24:54.910Z,97.22
2019-04-10T01:25:54.879Z,97.41
2019-04-10T01:26:55.834Z,97.41
2019-04-10T01:27:54.831Z,97.41
2019-04-10T01:28:55.620Z,97.41
2019-04-10T01:29:54.776Z,97.41
2019-04-10T01:30:54.992Z,97.22
2019-04-10T01:31:55.278Z,97.22
2019-04-10T01:32:54.700Z,97.50
2019-04-10T01:33:54.862Z,97.50
2019-04-10T01:34:54.649Z,97.22
2019-04-10T01:35:54.623Z,97.41
2019-04-10T01:36:54.680Z,97.31
2019-04-10T01:38:00.456Z,97.41
2019-04-10T01:38:54.872Z,97.50
2019-04-10T01:39:54.851Z,97.78
2019-04-10T01:40:55.366Z,97.12
2019-04-10T01:41:54.500Z,97.69
2019-04-10T01:43:08.232Z,97.88
2019-04-10T01:43:55.210Z,97.78
2019-04-10T01:44:55.251Z,97.78
2019-04-10T01:45:54.366Z,97.88
2019-04-10T01:46:54.992Z,98.07
2019-04-10T01:47:55.317Z,97.60
2019-04-10T01:48:55.439Z,98.26
2019-04-10T01:49:54.263Z,98.26
2019-04-10T01:50:54.869Z,98.36
2019-04-10T01:51:55.139Z,98.45
2019-04-10T01:52:54.185Z,97.55
2019-04-10T01:53:54.455Z,97.60
2019-04-10T01:54:54.134Z,97.50
2019-04-10T01:55:54.108Z,97.92
2019-04-10T01:56:54.082Z,98.02
2019-04-10T01:57:54.696Z,98.12
2019-04-10T01:58:54.031Z,98.59
2019-04-10T01:59:54.224Z,97.60
2019-04-10T02:00:54.214Z,97.55
2019-04-10T02:01:53.953Z,97.64
2019-04-10T02:02:54.049Z,97.55
2019-04-10T02:03:54.253Z,97.83
2019-04-10T02:04:55.200Z,98.12
2019-04-10T02:05:54.699Z,97.74
2019-04-10T02:06:53.866Z,97.83
2019-04-10T02:08:03.957Z,97.92
2019-04-10T02:08:54.262Z,97.83
2019-04-10T02:09:54.035Z,98.02
2019-04-10T02:10:53.719Z,97.74
2019-04-10T02:11:54.432Z,97.74
2019-04-10T02:12:54.720Z,98.69
2019-04-10T02:13:54.019Z,98.40
2019-04-10T02:14:54.367Z,97.83
2019-04-10T02:15:54.460Z,97.55
2019-04-10T02:16:53.565Z,97.45
2019-04-10T02:17:53.538Z,98.59
2019-04-10T02:18:54.119Z,97.64
2019-04-10T02:19:54.519Z,98.40
2019-04-10T02:20:53.676Z,98.79
2019-04-10T02:21:53.443Z,98.59
2019-04-10T02:22:54.061Z,98.35
2019-04-10T02:23:54.450Z,98.07
2019-04-10T02:24:53.541Z,98.35
2019-04-10T02:25:53.333Z,97.88
2019-04-10T02:26:54.023Z,98.26
2019-04-10T02:27:54.340Z,98.45
2019-04-10T02:28:53.476Z,98.26
2019-04-10T02:29:53.227Z,97.55
2019-04-10T02:30:54.546Z,97.27
2019-04-10T02:31:54.915Z,97.64
2019-04-10T02:32:54.579Z,97.64
2019-04-10T02:33:53.705Z,97.36
2019-04-10T02:34:53.310Z,97.64
2019-04-10T02:35:53.070Z,96.98
2019-04-10T02:36:53.042Z,96.50
2019-04-10T02:37:55.533Z,96.88
2019-04-10T02:39:07.116Z,96.60
2019-04-10T02:39:57.916Z,96.50
2019-04-10T02:40:53.127Z,96.79
2019-04-10T02:41:54.499Z,97.36
2019-04-10T02:42:54.542Z,96.84
2019-04-10T02:43:53.724Z,96.50
2019-04-10T02:44:54.175Z,96.45
2019-04-10T02:45:53.072Z,96.45
2019-04-10T02:46:54.916Z,96.55
2019-04-10T02:47:55.225Z,96.26
2019-04-10T02:48:54.280Z,96.26
2019-04-10T02:49:54.272Z,95.70
2019-04-10T02:50:53.373Z,96.74
2019-04-10T02:51:52.649Z,95.98
2019-04-10T02:52:52.623Z,95.41
2019-04-10T02:53:57.693Z,95.89
2019-04-10T02:54:53.719Z,95.70
2019-04-10T02:55:53.668Z,95.17
2019-04-10T02:56:52.853Z,95.84
2019-04-10T02:57:54.067Z,95.27
2019-04-10T02:58:52.468Z,95.56
2019-04-10T02:59:53.834Z,95.56
2019-04-10T03:00:54.454Z,95.75
2019-04-10T03:01:52.448Z,95.46
2019-04-10T03:02:54.911Z,95.56
2019-04-10T03:03:53.381Z,95.36
2019-04-10T03:04:53.275Z,95.94
2019-04-10T03:05:52.288Z,95.56
2019-04-10T03:06:53.588Z,95.56
2019-04-10T03:07:52.689Z,95.84
2019-04-10T03:09:07.941Z,96.03
2019-04-10T03:10:02.068Z,95.94
2019-04-10T03:11:02.032Z,96.41
2019-04-10T03:11:52.135Z,96.31
2019-04-10T03:12:52.734Z,95.70
2019-04-10T03:13:53.498Z,96.22
2019-04-10T03:14:52.734Z,96.22
2019-04-10T03:15:53.482Z,96.60
2019-04-10T03:16:52.006Z,96.79
2019-04-10T03:17:52.446Z,96.50
2019-04-10T03:18:52.915Z,96.89
2019-04-10T03:19:51.986Z,96.31
2019-04-10T03:20:51.906Z,96.55
2019-04-10T03:21:51.881Z,97.45
2019-04-10T03:22:51.855Z,96.98
2019-04-10T03:23:51.830Z,96.98
2019-04-10T03:24:52.681Z,96.98
2019-04-10T03:25:51.779Z,96.79
2019-04-10T03:26:52.151Z,96.94
2019-04-10T03:27:52.530Z,97.13
2019-04-10T03:28:51.705Z,96.94
2019-04-10T03:29:51.988Z,96.84
2019-04-10T03:30:53.611Z,97.08
2019-04-10T03:31:53.000Z,97.13
2019-04-10T03:32:59.623Z,97.17
2019-04-10T03:33:54.450Z,97.36
2019-04-10T03:34:53.347Z,97.55
2019-04-10T03:35:51.559Z,97.22
2019-04-10T03:36:51.791Z,97.31
2019-04-10T03:37:51.476Z,97.27
2019-04-10T03:38:59.598Z,96.84
2019-04-10T03:39:51.428Z,97.17
2019-04-10T03:40:51.548Z,97.50
2019-04-10T03:41:52.543Z,97.50
2019-04-10T03:42:51.350Z,97.31
2019-04-10T03:43:52.217Z,97.36
2019-04-10T03:44:51.437Z,97.31
2019-04-10T03:45:51.275Z,97.31
2019-04-10T03:46:52.722Z,97.69
2019-04-10T03:47:51.505Z,97.98
2019-04-10T03:48:51.528Z,97.41
2019-04-10T03:49:51.937Z,97.60
2019-04-10T03:50:52.179Z,97.60
2019-04-10T03:51:51.125Z,97.98
2019-04-10T03:52:51.769Z,97.98
2019-04-10T03:53:51.074Z,98.08
2019-04-10T03:54:51.050Z,97.79
2019-04-10T03:55:52.039Z,97.79
2019-04-10T03:56:51.033Z,98.08
2019-04-10T03:57:51.951Z,98.65
2019-04-10T03:58:51.627Z,98.65
2019-04-10T03:59:51.830Z,98.08
2019-04-10T04:00:50.908Z,98.46
2019-04-10T04:01:51.362Z,98.46
2019-04-10T04:02:51.838Z,98.46
2019-04-10T04:03:51.151Z,98.46
2019-04-10T04:04:50.798Z,98.83
2019-04-10T04:05:51.075Z,99.12
2019-04-10T04:06:50.748Z,98.65
2019-04-10T04:07:50.762Z,99.02
2019-04-10T04:09:01.682Z,98.55
2019-04-10T04:09:51.561Z,98.46
2019-04-10T04:10:51.398Z,98.55
2019-04-10T04:11:50.629Z,98.12
2019-04-10T04:12:50.962Z,98.60
2019-04-10T04:13:50.572Z,97.74
2019-04-10T04:14:50.733Z,97.83
2019-04-10T04:15:50.647Z,98.12
2019-04-10T04:16:51.218Z,97.83
2019-04-10T04:17:50.668Z,97.83
2019-04-10T04:18:51.224Z,97.83
2019-04-10T04:19:50.509Z,97.64
2019-04-10T04:20:51.000Z,97.36
2019-04-10T04:21:50.371Z,97.74
2019-04-10T04:22:50.345Z,98.03
2019-04-10T04:23:51.089Z,98.03
2019-04-10T04:24:50.371Z,97.74
2019-04-10T04:25:50.448Z,98.03
2019-04-10T04:26:50.831Z,98.03
2019-04-10T04:27:50.219Z,97.45
2019-04-10T04:28:50.196Z,97.64
2019-04-10T04:29:50.167Z,97.55
2019-04-10T04:30:52.342Z,97.74
2019-04-10T04:31:50.677Z,97.64
2019-04-10T04:32:50.490Z,97.88
2019-04-10T04:33:50.099Z,98.65
2019-04-10T04:34:50.045Z,97.93
2019-04-10T04:35:51.075Z,97.98
2019-04-10T04:36:49.989Z,97.79
2019-04-10T04:37:50.611Z,97.98
2019-04-10T04:38:49.941Z,97.69
2019-04-10T04:39:49.963Z,97.79
2019-04-10T04:40:51.297Z,97.69
2019-04-10T04:41:50.199Z,98.08
2019-04-10T04:42:49.841Z,97.79
2019-04-10T04:43:50.150Z,97.79
2019-04-10T04:44:49.788Z,97.79
2019-04-10T04:45:50.695Z,98.17
2019-04-10T04:46:50.599Z,98.65
2019-04-10T04:47:50.326Z,98.55
2019-04-10T04:48:50.440Z,98.65
2019-04-10T04:49:50.238Z,98.08
2019-04-10T04:50:50.021Z,98.27
2019-04-10T04:51:50.594Z,98.46
2019-04-10T04:52:49.586Z,98.46
2019-04-10T04:53:50.533Z,99.02
2019-04-10T04:54:49.862Z,98.93
2019-04-10T04:55:49.515Z,99.50
2019-04-10T04:56:50.466Z,98.55
2019-04-10T04:57:49.461Z,99.22
2019-04-10T04:58:49.738Z,99.60
2019-04-10T04:59:50.500Z,99.02
2019-04-10T05:00:50.830Z,99.12
2019-04-10T05:01:49.361Z,99.22
2019-04-10T05:02:49.363Z,99.60
2019-04-10T05:03:50.456Z,99.41
2019-04-10T05:04:49.430Z,99.22
2019-04-10T05:05:49.959Z,99.22
2019-04-10T05:06:50.083Z,99.50
2019-04-10T05:07:57.545Z,99.31
2019-04-10T05:08:49.185Z,99.60
2019-04-10T05:09:50.339Z,99.60
2019-04-10T05:10:49.664Z,99.69
2019-04-10T05:11:49.117Z,99.79
2019-04-10T05:12:49.484Z,99.79
2019-04-10T05:13:49.125Z,99.60
2019-04-10T05:14:49.037Z,99.69
2019-04-10T05:15:49.288Z,99.60
2019-04-10T05:16:49.942Z,99.69
2019-04-10T05:17:49.353Z,99.55
2019-04-10T05:18:50.031Z,99.93
2019-04-10T05:19:48.912Z,99.79
2019-04-10T05:20:50.863Z,99.99
2019-04-10T05:21:49.806Z,99.99
2019-04-10T05:22:49.473Z,99.99
2019-04-10T05:23:49.251Z,99.99
2019-04-10T05:24:48.943Z,99.41
2019-04-10T05:25:49.771Z,99.79
2019-04-10T05:26:49.100Z,99.99
2019-04-10T05:27:49.046Z,99.60
2019-04-10T05:28:48.690Z,99.65
2019-04-10T05:29:48.661Z,99.46
2019-04-10T05:30:48.637Z,99.74
2019-04-10T05:31:48.936Z,99.74
2019-04-10T05:32:49.342Z,99.99
2019-04-10T05:33:49.155Z,99.99
2019-04-10T05:34:48.537Z,99.99
2019-04-10T05:35:48.799Z,99.99
2019-04-10T05:36:49.111Z,99.99
2019-04-10T05:37:48.469Z,99.99
2019-04-10T05:38:48.438Z,99.99
2019-04-10T05:39:50.740Z,99.99
2019-04-10T05:40:48.556Z,99.99
2019-04-10T05:41:48.483Z,99.99
2019-04-10T05:42:49.130Z,99.99
2019-04-10T05:43:48.914Z,99.99
2019-04-10T05:44:48.289Z,99.99
2019-04-10T05:45:48.638Z,99.99
2019-04-10T05:46:49.200Z,99.99
2019-04-10T05:47:48.217Z,99.99
2019-04-10T05:48:49.114Z,99.99
2019-04-10T05:49:49.148Z,99.99
2019-04-10T05:50:59.088Z,99.99
2019-04-10T05:51:48.117Z,99.99
2019-04-10T05:52:48.093Z,99.99
2019-04-10T05:53:51.030Z,99.99
2019-04-10T05:54:48.043Z,99.99
